createdAt,value
2022-12-20T00:00:53.957Z,87.96
2022-12-20T00:01:54.079Z,87.96
2022-12-20T00:02:53.989Z,87.82
2022-12-20T00:03:53.915Z,87.55
2022-12-20T00:04:53.913Z,88.06
2022-12-20T00:05:53.909Z,88.06
2022-12-20T00:06:53.889Z,87.55
2022-12-20T00:07:53.879Z,88.26
2022-12-20T00:08:53.875Z,88.47
2022-12-20T00:09:53.857Z,88.47
2022-12-20T00:10:53.835Z,88.06
2022-12-20T00:11:53.823Z,87.65
2022-12-20T00:12:53.816Z,87.92
2022-12-20T00:13:53.804Z,87.71
2022-12-20T00:14:53.804Z,87.41
2022-12-20T00:15:53.779Z,87.10
2022-12-20T00:16:53.788Z,87.20
2022-12-20T00:17:53.816Z,87.10
2022-12-20T00:18:53.758Z,86.69
2022-12-20T00:19:53.744Z,87.20
2022-12-20T00:20:53.723Z,86.90
2022-12-20T00:21:53.755Z,87.00
2022-12-20T00:22:53.701Z,87.20
2022-12-20T00:23:53.698Z,87.20
2022-12-20T00:24:53.693Z,86.90
2022-12-20T00:25:53.673Z,87.14
2022-12-20T00:26:53.676Z,87.30
2022-12-20T00:27:53.649Z,87.76
2022-12-20T00:28:53.637Z,87.55
2022-12-20T00:29:53.644Z,87.76
2022-12-20T00:30:53.614Z,88.06
2022-12-20T00:31:53.697Z,88.06
2022-12-20T00:32:53.613Z,87.85
2022-12-20T00:33:53.586Z,87.76
2022-12-20T00:34:53.577Z,88.06
2022-12-20T00:35:53.586Z,88.26
2022-12-20T00:36:53.545Z,88.06
2022-12-20T00:37:53.592Z,87.45
2022-12-20T00:38:53.532Z,87.35
2022-12-20T00:39:53.510Z,87.24
2022-12-20T00:40:53.505Z,87.10
2022-12-20T00:41:53.495Z,87.00
2022-12-20T00:42:53.479Z,86.79
2022-12-20T00:43:53.482Z,86.59
2022-12-20T00:44:53.458Z,86.69
2022-12-20T00:45:53.450Z,86.49
2022-12-20T00:46:53.512Z,86.83
2022-12-20T00:47:53.429Z,86.79
2022-12-20T00:48:53.416Z,86.79
2022-12-20T00:49:53.401Z,86.79
2022-12-20T00:50:53.403Z,86.90
2022-12-20T00:51:53.395Z,86.83
2022-12-20T00:52:53.377Z,86.32
2022-12-20T00:53:53.388Z,87.00
2022-12-20T00:54:53.349Z,86.90
2022-12-20T00:55:53.335Z,87.35
2022-12-20T00:56:53.346Z,86.59
2022-12-20T00:57:53.339Z,86.43
2022-12-20T00:58:53.305Z,87.04
2022-12-20T00:59:53.293Z,87.14
2022-12-20T01:00:56.518Z,86.63
2022-12-20T01:01:53.396Z,86.79
2022-12-20T01:02:53.403Z,86.59
2022-12-20T01:03:53.354Z,86.59
2022-12-20T01:05:00.326Z,86.38
2022-12-20T01:05:53.233Z,86.43
2022-12-20T01:06:53.237Z,86.69
2022-12-20T01:07:53.199Z,86.08
2022-12-20T01:08:53.192Z,86.38
2022-12-20T01:09:53.216Z,86.29
2022-12-20T01:10:53.173Z,86.29
2022-12-20T01:11:53.160Z,86.18
2022-12-20T01:12:53.168Z,86.38
2022-12-20T01:13:53.146Z,86.12
2022-12-20T01:14:53.128Z,86.22
2022-12-20T01:15:53.123Z,86.08
2022-12-20T01:16:53.185Z,86.12
2022-12-20T01:17:53.097Z,86.43
2022-12-20T01:18:53.088Z,86.32
2022-12-20T01:19:53.071Z,86.32
2022-12-20T01:20:53.076Z,86.32
2022-12-20T01:21:53.060Z,86.63
2022-12-20T01:22:53.036Z,86.43
2022-12-20T01:23:53.040Z,86.18
2022-12-20T01:24:53.016Z,86.12
2022-12-20T01:25:53.032Z,86.18
2022-12-20T01:26:53.004Z,86.29
2022-12-20T01:27:52.994Z,85.97
2022-12-20T01:28:52.984Z,85.77
2022-12-20T01:29:52.977Z,85.36
2022-12-20T01:30:52.958Z,85.53
2022-12-20T01:31:53.009Z,85.57
2022-12-20T01:32:52.961Z,85.02
2022-12-20T01:33:52.911Z,85.22
2022-12-20T01:34:52.919Z,84.85
2022-12-20T01:35:52.909Z,84.91
2022-12-20T01:36:52.880Z,84.81
2022-12-20T01:37:52.875Z,84.81
2022-12-20T01:38:52.871Z,84.30
2022-12-20T01:39:52.855Z,84.71
2022-12-20T01:40:52.845Z,84.81
2022-12-20T01:41:52.851Z,84.61
2022-12-20T01:42:52.830Z,84.71
2022-12-20T01:43:52.827Z,84.61
2022-12-20T01:44:52.800Z,84.50
2022-12-20T01:45:52.969Z,84.50
2022-12-20T01:46:52.773Z,84.61
2022-12-20T01:47:52.763Z,84.61
2022-12-20T01:48:52.751Z,84.50
2022-12-20T01:49:52.740Z,84.50
2022-12-20T01:50:52.773Z,83.89
2022-12-20T01:51:52.715Z,84.00
2022-12-20T01:52:52.702Z,84.50
2022-12-20T01:53:52.723Z,84.50
2022-12-20T01:54:52.710Z,84.50
2022-12-20T01:55:52.676Z,84.00
2022-12-20T01:56:52.683Z,83.89
2022-12-20T01:57:52.669Z,84.00
2022-12-20T01:58:52.669Z,84.00
2022-12-20T01:59:52.625Z,84.50
2022-12-20T02:00:52.687Z,84.41
2022-12-20T02:01:52.727Z,84.09
2022-12-20T02:02:52.775Z,83.89
2022-12-20T02:03:52.601Z,84.20
2022-12-20T02:04:52.572Z,84.20
2022-12-20T02:05:52.554Z,84.41
2022-12-20T02:06:52.557Z,84.30
2022-12-20T02:07:52.553Z,84.09
2022-12-20T02:08:52.546Z,84.20
2022-12-20T02:09:52.524Z,84.41
2022-12-20T02:10:52.528Z,84.41
2022-12-20T02:11:52.490Z,83.54
2022-12-20T02:12:52.491Z,83.48
2022-12-20T02:13:52.500Z,83.54
2022-12-20T02:14:52.478Z,83.69
2022-12-20T02:15:52.472Z,83.38
2022-12-20T02:16:52.535Z,83.69
2022-12-20T02:17:52.425Z,83.34
2022-12-20T02:18:52.428Z,83.79
2022-12-20T02:19:52.399Z,84.00
2022-12-20T02:20:52.410Z,83.07
2022-12-20T02:21:52.409Z,84.06
2022-12-20T02:22:52.404Z,83.69
2022-12-20T02:23:52.357Z,83.34
2022-12-20T02:24:52.390Z,83.07
2022-12-20T02:25:52.351Z,83.14
2022-12-20T02:26:52.326Z,83.69
2022-12-20T02:27:52.325Z,83.79
2022-12-20T02:28:52.307Z,83.34
2022-12-20T02:29:52.341Z,83.54
2022-12-20T02:30:52.303Z,83.54
2022-12-20T02:31:52.324Z,84.06
2022-12-20T02:32:52.259Z,83.54
2022-12-20T02:33:52.271Z,84.16
2022-12-20T02:34:52.238Z,83.75
2022-12-20T02:35:52.227Z,83.85
2022-12-20T02:36:52.243Z,84.67
2022-12-20T02:37:52.249Z,84.77
2022-12-20T02:38:52.205Z,85.79
2022-12-20T02:39:52.209Z,86.20
2022-12-20T02:40:52.196Z,86.76
2022-12-20T02:41:52.173Z,87.12
2022-12-20T02:42:52.151Z,87.26
2022-12-20T02:43:52.165Z,88.29
2022-12-20T02:44:52.144Z,88.90
2022-12-20T02:45:52.207Z,89.51
2022-12-20T02:46:52.105Z,90.17
2022-12-20T02:47:52.111Z,90.58
2022-12-20T02:48:52.084Z,91.50
2022-12-20T02:49:52.072Z,92.11
2022-12-20T02:50:52.111Z,91.85
2022-12-20T02:51:52.058Z,91.60
2022-12-20T02:52:52.035Z,92.36
2022-12-20T02:53:52.044Z,92.66
2022-12-20T02:54:52.013Z,92.46
2022-12-20T02:55:52.014Z,92.32
2022-12-20T02:56:52.003Z,92.25
2022-12-20T02:57:57.899Z,92.56
2022-12-20T02:58:52.979Z,92.25
2022-12-20T02:59:51.970Z,92.56
2022-12-20T03:00:51.951Z,92.46
2022-12-20T03:01:52.151Z,92.32
2022-12-20T03:02:52.104Z,92.36
2022-12-20T03:03:51.979Z,92.46
2022-12-20T03:04:51.923Z,92.56
2022-12-20T03:05:51.899Z,92.56
2022-12-20T03:06:51.877Z,92.56
2022-12-20T03:07:51.868Z,92.56
2022-12-20T03:08:51.861Z,93.48
2022-12-20T03:09:51.875Z,93.38
2022-12-20T03:10:52.716Z,93.69
2022-12-20T03:11:51.856Z,94.71
2022-12-20T03:12:52.637Z,94.92
2022-12-20T03:13:51.841Z,95.22
2022-12-20T03:14:51.888Z,95.12
2022-12-20T03:15:52.189Z,95.32
2022-12-20T03:16:51.945Z,95.78
2022-12-20T03:17:52.672Z,95.88
2022-12-20T03:18:51.877Z,96.49
2022-12-20T03:19:51.859Z,96.49
2022-12-20T03:20:51.730Z,97.21
2022-12-20T03:21:51.723Z,97.00
2022-12-20T03:22:51.698Z,96.70
2022-12-20T03:23:51.792Z,97.31
2022-12-20T03:24:51.684Z,97.52
2022-12-20T03:25:51.683Z,97.97
2022-12-20T03:26:51.657Z,97.15
2022-12-20T03:27:51.644Z,97.36
2022-12-20T03:28:51.643Z,97.56
2022-12-20T03:29:51.632Z,98.38
2022-12-20T03:30:51.702Z,98.07
2022-12-20T03:31:51.609Z,98.28
2022-12-20T03:32:51.596Z,98.79
2022-12-20T03:33:51.617Z,98.69
2022-12-20T03:34:51.584Z,98.79
2022-12-20T03:35:51.570Z,98.99
2022-12-20T03:36:51.545Z,99.35
2022-12-20T03:37:51.548Z,98.94
2022-12-20T03:38:51.523Z,99.86
2022-12-20T03:39:51.541Z,99.45
2022-12-20T03:40:51.500Z,99.55
2022-12-20T03:41:51.492Z,99.45
2022-12-20T03:42:51.486Z,99.45
2022-12-20T03:43:51.467Z,99.55
2022-12-20T03:44:51.524Z,99.86
2022-12-20T03:45:51.506Z,99.86
2022-12-20T03:46:51.494Z,99.55
2022-12-20T03:47:51.428Z,99.76
2022-12-20T03:48:51.413Z,99.99
2022-12-20T03:49:51.433Z,99.99
2022-12-20T03:50:51.408Z,99.99
2022-12-20T03:51:51.416Z,99.99
2022-12-20T03:52:51.377Z,99.99
2022-12-20T03:53:51.366Z,99.99
2022-12-20T03:54:51.351Z,99.99
2022-12-20T03:55:51.350Z,99.99
2022-12-20T03:56:51.338Z,99.99
2022-12-20T03:57:51.326Z,99.99
2022-12-20T03:58:51.328Z,99.99
2022-12-20T03:59:51.293Z,99.99
2022-12-20T04:00:51.309Z,99.99
2022-12-20T04:01:51.378Z,99.99
2022-12-20T04:02:51.579Z,99.99
2022-12-20T04:03:51.449Z,99.99
2022-12-20T04:04:51.260Z,99.99
2022-12-20T04:05:51.247Z,99.99
2022-12-20T04:06:51.237Z,99.99
2022-12-20T04:07:51.229Z,99.99
2022-12-20T04:08:51.216Z,99.99
2022-12-20T04:09:51.194Z,99.99
2022-12-20T04:10:51.169Z,99.99
2022-12-20T04:11:51.168Z,99.99
2022-12-20T04:12:51.152Z,99.99
2022-12-20T04:13:51.152Z,99.99
2022-12-20T04:14:51.137Z,99.99
2022-12-20T04:15:54.165Z,99.99
2022-12-20T04:16:52.128Z,99.99
2022-12-20T04:17:51.096Z,99.99
2022-12-20T04:18:51.095Z,99.99
2022-12-20T04:19:51.093Z,99.99
2022-12-20T04:20:51.060Z,99.99
2022-12-20T04:21:51.079Z,99.99
2022-12-20T04:22:51.037Z,99.99
2022-12-20T04:23:51.031Z,99.99
2022-12-20T04:24:51.038Z,99.80
2022-12-20T04:25:51.033Z,99.80
2022-12-20T04:26:51.003Z,99.96
2022-12-20T04:27:50.987Z,99.45
2022-12-20T04:28:50.972Z,98.83
2022-12-20T04:29:50.972Z,98.99
2022-12-20T04:30:51.000Z,98.83
2022-12-20T04:31:51.076Z,99.04
2022-12-20T04:32:50.925Z,98.63
2022-12-20T04:33:50.926Z,98.83
2022-12-20T04:34:50.909Z,98.53
2022-12-20T04:35:50.897Z,98.12
2022-12-20T04:36:50.911Z,98.02
2022-12-20T04:37:50.900Z,98.53
2022-12-20T04:38:50.864Z,98.33
2022-12-20T04:39:50.896Z,98.43
2022-12-20T04:40:50.874Z,97.50
2022-12-20T04:41:50.840Z,97.50
2022-12-20T04:42:50.815Z,97.20
2022-12-20T04:43:50.815Z,97.61
2022-12-20T04:44:50.797Z,97.20
2022-12-20T04:45:50.801Z,97.40
2022-12-20T04:46:50.829Z,97.81
2022-12-20T04:47:50.772Z,97.91
2022-12-20T04:48:59.649Z,97.91
2022-12-20T04:49:51.742Z,97.66
2022-12-20T04:50:50.728Z,96.84
2022-12-20T04:51:50.712Z,96.23
2022-12-20T04:52:50.725Z,96.13
2022-12-20T04:53:50.744Z,95.92
2022-12-20T04:54:50.697Z,95.92
2022-12-20T04:55:50.685Z,95.92
2022-12-20T04:56:50.664Z,96.13
2022-12-20T04:57:50.653Z,95.51
2022-12-20T04:58:50.651Z,95.62
2022-12-20T04:59:50.643Z,95.47
2022-12-20T05:00:50.615Z,95.06
2022-12-20T05:01:50.732Z,95.06
2022-12-20T05:02:50.888Z,94.45
2022-12-20T05:03:50.770Z,94.55
2022-12-20T05:04:50.595Z,94.45
2022-12-20T05:05:50.558Z,94.65
2022-12-20T05:06:50.558Z,94.65
2022-12-20T05:07:50.553Z,94.14
2022-12-20T05:08:50.536Z,94.75
2022-12-20T05:09:50.560Z,94.10
2022-12-20T05:10:50.512Z,94.20
2022-12-20T05:11:50.508Z,94.14
2022-12-20T05:12:50.486Z,94.14
2022-12-20T05:13:50.502Z,93.52
2022-12-20T05:14:50.477Z,93.93
2022-12-20T05:15:50.506Z,93.73
2022-12-20T05:16:50.459Z,93.84
2022-12-20T05:17:50.438Z,93.69
2022-12-20T05:18:50.421Z,94.04
2022-12-20T05:19:50.417Z,94.04
2022-12-20T05:20:50.408Z,93.99
2022-12-20T05:21:50.395Z,94.24
2022-12-20T05:22:50.414Z,93.63
2022-12-20T05:23:50.368Z,93.99
2022-12-20T05:24:50.359Z,94.24
2022-12-20T05:25:50.371Z,93.69
2022-12-20T05:26:50.388Z,94.10
2022-12-20T05:27:50.322Z,93.93
2022-12-20T05:28:50.305Z,93.63
2022-12-20T05:29:50.298Z,93.93
2022-12-20T05:30:50.295Z,93.93
2022-12-20T05:31:50.454Z,93.84
2022-12-20T05:32:50.285Z,93.63
2022-12-20T05:33:50.263Z,93.93
2022-12-20T05:34:50.245Z,93.79
2022-12-20T05:35:50.246Z,93.69
2022-12-20T05:36:50.222Z,93.89
2022-12-20T05:37:50.220Z,94.10
2022-12-20T05:38:50.214Z,94.04
2022-12-20T05:39:50.192Z,94.10
2022-12-20T05:40:50.205Z,94.14
2022-12-20T05:41:50.218Z,93.79
2022-12-20T05:42:50.152Z,93.73
2022-12-20T05:43:50.143Z,93.84
2022-12-20T05:44:50.131Z,93.89
2022-12-20T05:45:50.122Z,93.59
2022-12-20T05:46:50.294Z,93.99
2022-12-20T05:47:50.101Z,93.99
2022-12-20T05:48:50.087Z,94.34
2022-12-20T05:49:50.078Z,93.99
2022-12-20T05:50:50.114Z,94.10
2022-12-20T05:51:50.067Z,93.73
2022-12-20T05:52:50.043Z,93.89
2022-12-20T05:53:50.027Z,93.89
2022-12-20T05:54:50.026Z,93.69
2022-12-20T05:55:50.015Z,93.79
2022-12-20T05:56:50.011Z,93.48
2022-12-20T05:57:50.015Z,92.97
2022-12-20T05:58:49.999Z,93.38
2022-12-20T05:59:49.966Z,93.18
2022-12-20T06:00:49.959Z,93.59
2022-12-20T06:01:50.159Z,93.89
2022-12-20T06:02:50.127Z,93.73
2022-12-20T06:03:50.071Z,93.38
2022-12-20T06:04:49.915Z,93.99
2022-12-20T06:05:49.934Z,94.30
2022-12-20T06:06:49.890Z,93.69
2022-12-20T06:07:49.886Z,93.99
2022-12-20T06:08:49.869Z,94.30
2022-12-20T06:09:49.852Z,94.10
2022-12-20T06:10:49.863Z,94.30
2022-12-20T06:11:49.844Z,94.60
2022-12-20T06:12:49.847Z,94.60
2022-12-20T06:13:49.837Z,94.30
2022-12-20T06:14:49.800Z,95.02
2022-12-20T06:15:49.805Z,94.40
2022-12-20T06:16:49.911Z,94.92
2022-12-20T06:17:49.771Z,95.43
2022-12-20T06:18:49.763Z,94.40
2022-12-20T06:19:49.766Z,94.51
2022-12-20T06:20:49.730Z,94.71
2022-12-20T06:21:49.719Z,95.22
2022-12-20T06:22:49.714Z,94.71
2022-12-20T06:23:49.734Z,95.22
2022-12-20T06:24:49.685Z,94.71
2022-12-20T06:25:49.706Z,95.12
2022-12-20T06:26:49.664Z,95.02
2022-12-20T06:27:49.650Z,95.53
2022-12-20T06:28:49.641Z,95.02
2022-12-20T06:29:49.670Z,95.32
2022-12-20T06:30:49.618Z,95.12
2022-12-20T06:31:49.668Z,95.12
2022-12-20T06:32:49.596Z,95.12
2022-12-20T06:33:49.611Z,95.32
2022-12-20T06:34:49.576Z,95.12
2022-12-20T06:35:49.588Z,95.28
2022-12-20T06:36:49.564Z,95.32
2022-12-20T06:37:49.544Z,95.18
2022-12-20T06:38:49.539Z,95.12
2022-12-20T06:39:49.537Z,95.53
2022-12-20T06:40:49.511Z,95.53
2022-12-20T06:41:49.510Z,94.97
2022-12-20T06:42:49.495Z,95.28
2022-12-20T06:43:49.484Z,94.60
2022-12-20T06:44:49.479Z,94.97
2022-12-20T06:45:49.514Z,94.51
2022-12-20T06:46:49.462Z,94.97
2022-12-20T06:47:49.444Z,94.87
2022-12-20T06:48:49.431Z,94.60
2022-12-20T06:49:49.433Z,94.92
2022-12-20T06:50:55.600Z,95.12
2022-12-20T06:51:50.399Z,95.12
2022-12-20T06:52:49.379Z,95.32
2022-12-20T06:53:49.372Z,95.02
2022-12-20T06:54:49.367Z,95.32
2022-12-20T06:55:49.355Z,95.53
2022-12-20T06:56:49.336Z,95.32
2022-12-20T06:57:49.331Z,94.60
2022-12-20T06:58:49.327Z,94.87
2022-12-20T06:59:49.302Z,94.51
2022-12-20T07:00:49.504Z,94.51
2022-12-20T07:01:49.507Z,95.02
2022-12-20T07:02:49.497Z,95.02
2022-12-20T07:03:49.275Z,94.60
2022-12-20T07:04:49.250Z,94.30
2022-12-20T07:05:56.351Z,94.51
2022-12-20T07:06:49.235Z,94.51
2022-12-20T07:07:49.226Z,94.60
2022-12-20T07:08:49.198Z,94.10
2022-12-20T07:09:49.199Z,94.20
2022-12-20T07:10:49.181Z,94.10
2022-12-20T07:11:49.169Z,93.89
2022-12-20T07:12:49.163Z,93.69
2022-12-20T07:13:49.143Z,94.10
2022-12-20T07:14:49.148Z,94.10
2022-12-20T07:15:49.133Z,93.79
2022-12-20T07:16:49.173Z,93.59
2022-12-20T07:17:49.138Z,93.48
2022-12-20T07:18:49.092Z,93.38
2022-12-20T07:19:51.172Z,93.28
2022-12-20T07:20:49.099Z,93.48
2022-12-20T07:21:49.076Z,93.69
2022-12-20T07:22:49.050Z,92.77
2022-12-20T07:23:49.030Z,92.72
2022-12-20T07:24:49.025Z,92.56
2022-12-20T07:25:49.021Z,92.42
2022-12-20T07:26:49.004Z,92.56
2022-12-20T07:27:48.988Z,92.52
2022-12-20T07:28:48.993Z,92.36
2022-12-20T07:29:48.978Z,92.77
2022-12-20T07:30:48.969Z,91.95
2022-12-20T07:31:49.086Z,92.25
2022-12-20T07:32:48.936Z,92.25
2022-12-20T07:33:48.970Z,92.25
2022-12-20T07:34:55.935Z,92.36
2022-12-20T07:35:54.241Z,92.36
2022-12-20T07:36:49.895Z,91.74
2022-12-20T07:37:48.877Z,92.46
2022-12-20T07:38:48.901Z,92.46
2022-12-20T07:39:48.876Z,92.87
2022-12-20T07:40:48.850Z,92.36
2022-12-20T07:41:48.845Z,92.46
2022-12-20T07:42:49.267Z,92.46
2022-12-20T07:43:48.836Z,92.56
2022-12-20T07:44:48.822Z,92.56
2022-12-20T07:45:48.940Z,91.64
2022-12-20T07:46:48.780Z,91.54
2022-12-20T07:47:48.804Z,91.95
2022-12-20T07:48:48.789Z,91.91
2022-12-20T07:49:48.761Z,92.11
2022-12-20T07:50:48.780Z,91.50
2022-12-20T07:51:48.760Z,91.60
2022-12-20T07:52:48.727Z,91.54
2022-12-20T07:53:48.716Z,91.03
2022-12-20T07:54:48.692Z,90.88
2022-12-20T07:55:48.690Z,90.78
2022-12-20T07:56:48.680Z,90.88
2022-12-20T07:57:48.675Z,90.82
2022-12-20T07:58:48.671Z,90.99
2022-12-20T07:59:48.633Z,90.99
2022-12-20T08:00:48.631Z,91.09
2022-12-20T08:01:48.898Z,90.78
2022-12-20T08:02:48.844Z,90.99
2022-12-20T08:03:48.614Z,90.92
2022-12-20T08:04:48.593Z,90.72
2022-12-20T08:05:48.614Z,90.41
2022-12-20T08:06:48.553Z,90.47
2022-12-20T08:07:51.112Z,90.41
2022-12-20T08:08:48.538Z,90.27
2022-12-20T08:09:48.525Z,90.37
2022-12-20T08:10:48.517Z,90.27
2022-12-20T08:11:48.515Z,90.41
2022-12-20T08:12:48.500Z,90.58
2022-12-20T08:13:52.688Z,90.27
2022-12-20T08:14:49.481Z,89.97
2022-12-20T08:15:48.451Z,90.11
2022-12-20T08:16:48.490Z,90.06
2022-12-20T08:17:48.456Z,90.27
2022-12-20T08:18:48.432Z,89.80
2022-12-20T08:19:48.423Z,89.76
2022-12-20T08:20:48.416Z,90.17
2022-12-20T08:21:48.422Z,90.27
2022-12-20T08:22:48.382Z,90.52
2022-12-20T08:23:48.388Z,90.00
2022-12-20T08:24:48.356Z,89.97
2022-12-20T08:25:48.363Z,89.80
2022-12-20T08:26:48.333Z,89.65
2022-12-20T08:27:48.335Z,89.15
2022-12-20T08:28:48.312Z,89.15
2022-12-20T08:29:48.304Z,89.35
2022-12-20T08:30:48.376Z,89.11
2022-12-20T08:31:50.596Z,89.35
2022-12-20T08:32:48.329Z,88.90
2022-12-20T08:33:48.262Z,88.49
2022-12-20T08:34:48.248Z,88.70
2022-12-20T08:35:48.240Z,88.70
2022-12-20T08:36:48.233Z,88.18
2022-12-20T08:37:48.231Z,88.39
2022-12-20T08:38:48.216Z,88.70
2022-12-20T08:39:48.216Z,88.79
2022-12-20T08:40:48.178Z,88.70
2022-12-20T08:41:48.163Z,88.79
2022-12-20T08:42:48.170Z,88.29
2022-12-20T08:43:48.150Z,88.29
2022-12-20T08:44:48.149Z,87.88
2022-12-20T08:45:48.200Z,87.37
2022-12-20T08:46:48.116Z,87.26
2022-12-20T08:47:48.111Z,87.94
2022-12-20T08:48:48.089Z,87.84
2022-12-20T08:49:48.276Z,87.43
2022-12-20T08:50:48.139Z,87.43
2022-12-20T08:51:48.167Z,87.32
2022-12-20T08:52:48.081Z,86.91
2022-12-20T08:53:48.066Z,87.32
2022-12-20T08:54:48.036Z,87.02
2022-12-20T08:55:48.026Z,86.82
2022-12-20T08:56:48.001Z,86.71
2022-12-20T08:57:47.989Z,86.82
2022-12-20T08:58:48.008Z,86.51
2022-12-20T08:59:47.991Z,86.51
2022-12-20T09:00:47.971Z,86.06
2022-12-20T09:01:48.082Z,86.26
2022-12-20T09:02:48.232Z,86.47
2022-12-20T09:03:48.068Z,86.16
2022-12-20T09:04:47.932Z,86.00
2022-12-20T09:05:47.900Z,86.36
2022-12-20T09:06:47.906Z,86.16
2022-12-20T09:07:47.886Z,85.65
2022-12-20T09:08:47.940Z,85.45
2022-12-20T09:09:47.882Z,85.86
2022-12-20T09:10:47.863Z,85.35
2022-12-20T09:11:47.836Z,85.10
2022-12-20T09:12:47.822Z,85.00
2022-12-20T09:13:47.810Z,84.80
2022-12-20T09:14:47.842Z,84.59
2022-12-20T09:15:47.839Z,84.59
2022-12-20T09:16:47.797Z,84.49
2022-12-20T09:17:47.770Z,84.49
2022-12-20T09:18:47.763Z,84.49
2022-12-20T09:19:47.754Z,84.59
2022-12-20T09:20:47.736Z,84.49
2022-12-20T09:21:47.741Z,84.49
2022-12-20T09:22:47.722Z,84.59
2022-12-20T09:23:47.710Z,84.49
2022-12-20T09:24:47.698Z,84.39
2022-12-20T09:25:53.578Z,84.49
2022-12-20T09:26:50.547Z,84.39
2022-12-20T09:27:47.692Z,84.39
2022-12-20T09:28:47.672Z,84.45
2022-12-20T09:29:47.632Z,84.39
2022-12-20T09:30:47.711Z,83.98
2022-12-20T09:31:47.605Z,84.18
2022-12-20T09:32:47.612Z,84.25
2022-12-20T09:33:47.591Z,83.53
2022-12-20T09:34:47.578Z,83.43
2022-12-20T09:35:47.579Z,83.33
2022-12-20T09:36:47.615Z,83.78
2022-12-20T09:37:47.545Z,84.34
2022-12-20T09:38:47.533Z,83.43
2022-12-20T09:39:47.521Z,82.92
2022-12-20T09:40:47.523Z,82.92
2022-12-20T09:41:47.533Z,82.92
2022-12-20T09:42:47.497Z,83.02
2022-12-20T09:43:47.483Z,82.21
2022-12-20T09:44:47.484Z,82.61
2022-12-20T09:45:47.463Z,82.31
2022-12-20T09:46:47.515Z,82.61
2022-12-20T09:47:47.431Z,82.31
2022-12-20T09:48:47.430Z,82.71
2022-12-20T09:49:47.404Z,82.51
2022-12-20T09:50:47.420Z,82.31
2022-12-20T09:51:47.406Z,82.61
2022-12-20T09:52:47.395Z,82.92
2022-12-20T09:53:47.377Z,82.10
2022-12-20T09:54:47.363Z,82.71
2022-12-20T09:55:47.361Z,82.82
2022-12-20T09:56:47.338Z,82.71
2022-12-20T09:57:47.358Z,82.71
2022-12-20T09:58:47.315Z,82.31
2022-12-20T09:59:49.776Z,81.86
2022-12-20T10:00:53.581Z,81.66
2022-12-20T10:01:48.436Z,82.27
2022-12-20T10:03:01.967Z,82.68
2022-12-20T10:03:48.476Z,82.07
2022-12-20T10:04:47.503Z,82.78
2022-12-20T10:05:47.420Z,82.82
2022-12-20T10:06:47.227Z,82.07
2022-12-20T10:07:47.223Z,82.17
2022-12-20T10:08:47.207Z,81.96
2022-12-20T10:09:47.219Z,82.00
2022-12-20T10:10:47.200Z,82.78
2022-12-20T10:11:50.836Z,82.07
2022-12-20T10:12:47.174Z,82.17
2022-12-20T10:13:47.170Z,82.57
2022-12-20T10:14:47.153Z,82.88
2022-12-20T10:15:47.147Z,84.00
2022-12-20T10:16:47.126Z,84.34
2022-12-20T10:17:47.097Z,85.06
2022-12-20T10:18:47.116Z,85.68
2022-12-20T10:19:47.073Z,86.08
2022-12-20T10:20:47.080Z,86.90
2022-12-20T10:21:47.053Z,86.94
2022-12-20T10:22:47.053Z,87.55
2022-12-20T10:23:47.034Z,88.17
2022-12-20T10:24:47.032Z,88.17
2022-12-20T10:25:47.019Z,88.37
2022-12-20T10:26:47.004Z,88.92
2022-12-20T10:27:46.989Z,89.39
2022-12-20T10:28:52.224Z,88.67
2022-12-20T10:29:47.996Z,89.12
2022-12-20T10:30:47.019Z,89.32
2022-12-20T10:31:47.043Z,89.12
2022-12-20T10:32:46.948Z,89.32
2022-12-20T10:33:46.917Z,90.14
2022-12-20T10:34:48.730Z,90.25
2022-12-20T10:35:46.901Z,89.84
2022-12-20T10:36:46.910Z,89.84
2022-12-20T10:38:06.328Z,90.04
2022-12-20T10:38:47.875Z,89.73
2022-12-20T10:39:46.855Z,89.53
2022-12-20T10:41:19.384Z,89.53
2022-12-20T10:41:47.830Z,90.04
2022-12-20T10:42:46.838Z,90.04
2022-12-20T10:43:46.817Z,89.84
2022-12-20T10:44:46.799Z,88.92
2022-12-20T10:45:46.813Z,89.12
2022-12-20T10:46:46.864Z,89.12
2022-12-20T10:47:46.759Z,89.23
2022-12-20T10:48:46.764Z,89.23
2022-12-20T10:49:46.742Z,88.71
2022-12-20T10:50:46.761Z,88.47
2022-12-20T10:51:46.722Z,89.23
2022-12-20T10:52:46.710Z,88.26
2022-12-20T10:53:46.702Z,88.06
2022-12-20T10:54:46.691Z,87.85
2022-12-20T10:55:46.680Z,88.17
2022-12-20T10:56:46.678Z,88.26
2022-12-20T10:57:46.659Z,87.85
2022-12-20T10:58:46.643Z,87.85
2022-12-20T10:59:46.633Z,87.45
2022-12-20T11:00:46.618Z,86.94
2022-12-20T11:01:46.776Z,86.94
2022-12-20T11:02:46.853Z,87.04
2022-12-20T11:03:47.346Z,86.73
2022-12-20T11:04:46.568Z,87.14
2022-12-20T11:05:46.571Z,86.53
2022-12-20T11:06:46.574Z,86.53
2022-12-20T11:08:08.486Z,86.94
2022-12-20T11:08:52.753Z,86.49
2022-12-20T11:09:47.554Z,86.94
2022-12-20T11:10:46.529Z,86.63
2022-12-20T11:11:46.498Z,86.83
2022-12-20T11:12:46.484Z,86.43
2022-12-20T11:13:46.483Z,86.43
2022-12-20T11:14:46.475Z,86.53
2022-12-20T11:15:46.583Z,86.43
2022-12-20T11:16:46.525Z,86.22
2022-12-20T11:17:46.605Z,86.22
2022-12-20T11:18:46.417Z,86.02
2022-12-20T11:19:46.427Z,86.63
2022-12-20T11:20:46.399Z,86.63
2022-12-20T11:21:46.407Z,86.53
2022-12-20T11:22:46.370Z,86.63
2022-12-20T11:23:46.380Z,86.73
2022-12-20T11:24:46.345Z,86.63
2022-12-20T11:25:46.346Z,86.53
2022-12-20T11:26:46.330Z,86.83
2022-12-20T11:27:46.335Z,87.04
2022-12-20T11:28:46.320Z,86.73
2022-12-20T11:29:46.310Z,86.63
2022-12-20T11:30:46.281Z,87.04
2022-12-20T11:31:46.372Z,86.83
2022-12-20T11:32:48.912Z,87.14
2022-12-20T11:33:46.273Z,87.14
2022-12-20T11:34:46.251Z,86.83
2022-12-20T11:35:46.226Z,86.83
2022-12-20T11:36:46.210Z,87.04
2022-12-20T11:37:46.214Z,87.14
2022-12-20T11:38:46.223Z,87.35
2022-12-20T11:39:46.184Z,87.65
2022-12-20T11:40:46.169Z,87.85
2022-12-20T11:41:46.175Z,87.65
2022-12-20T11:42:46.144Z,87.24
2022-12-20T11:44:22.776Z,87.65
2022-12-20T11:44:53.977Z,87.55
2022-12-20T11:45:47.112Z,88.47
2022-12-20T11:46:46.147Z,88.17
2022-12-20T11:47:46.107Z,88.17
2022-12-20T11:48:46.083Z,88.47
2022-12-20T11:49:46.092Z,88.78
2022-12-20T11:50:46.056Z,88.78
2022-12-20T11:51:46.052Z,88.47
2022-12-20T11:52:46.056Z,88.88
2022-12-20T11:53:46.028Z,88.47
2022-12-20T11:54:46.025Z,88.88
2022-12-20T11:55:46.007Z,89.18
2022-12-20T11:56:46.000Z,89.18
2022-12-20T11:58:16.393Z,88.98
2022-12-20T11:58:46.979Z,88.57
2022-12-20T11:59:45.963Z,89.08
2022-12-20T12:00:45.964Z,88.57
2022-12-20T12:01:46.024Z,89.08
2022-12-20T12:02:46.055Z,89.08
2022-12-20T12:03:45.928Z,89.08
2022-12-20T12:04:45.938Z,90.10
2022-12-20T12:05:46.023Z,90.00
2022-12-20T12:06:45.879Z,90.25
2022-12-20T12:07:45.871Z,90.00
2022-12-20T12:08:45.883Z,90.10
2022-12-20T12:09:45.858Z,90.04
2022-12-20T12:10:45.837Z,89.94
2022-12-20T12:12:46.810Z,89.94
2022-12-20T12:13:45.817Z,90.25
2022-12-20T12:14:45.792Z,90.04
2022-12-20T12:15:45.812Z,90.55
2022-12-20T12:16:45.893Z,90.80
2022-12-20T12:17:45.766Z,90.80
2022-12-20T12:18:45.745Z,91.11
2022-12-20T12:19:45.746Z,91.20
2022-12-20T12:20:45.724Z,91.52
2022-12-20T12:21:45.763Z,91.47
2022-12-20T12:22:45.702Z,91.20
2022-12-20T12:23:45.690Z,91.16
2022-12-20T12:24:45.717Z,91.37
2022-12-20T12:25:45.668Z,91.11
2022-12-20T12:26:45.659Z,91.16
2022-12-20T12:27:45.659Z,91.98
2022-12-20T12:28:45.634Z,91.78
2022-12-20T12:29:45.628Z,91.67
2022-12-20T12:30:45.619Z,91.67
2022-12-20T12:31:45.653Z,92.19
2022-12-20T12:32:45.593Z,92.39
2022-12-20T12:33:45.585Z,92.43
2022-12-20T12:34:45.633Z,92.23
2022-12-20T12:35:45.576Z,92.94
2022-12-20T12:36:45.543Z,93.35
2022-12-20T12:37:45.565Z,93.35
2022-12-20T12:38:45.521Z,93.86
2022-12-20T12:39:45.540Z,93.96
2022-12-20T12:40:52.072Z,94.68
2022-12-20T12:41:46.497Z,94.52
2022-12-20T12:42:45.476Z,94.37
2022-12-20T12:43:45.481Z,95.13
2022-12-20T12:44:45.459Z,95.03
2022-12-20T12:45:45.498Z,94.82
2022-12-20T12:46:45.441Z,95.64
2022-12-20T12:47:45.424Z,96.05
2022-12-20T12:48:45.415Z,95.79
2022-12-20T12:49:45.428Z,95.85
2022-12-20T12:50:45.420Z,95.75
2022-12-20T12:51:45.379Z,97.08
2022-12-20T12:52:45.373Z,96.97
2022-12-20T12:53:45.384Z,96.92